sensor_id;sensor_type;location;lat;lon;timestamp;P1;durP1;ratioP1;P2;durP2;ratioP2
25129;SDS011;13308;50.860;13.664;2023-12-20T06:29:56;0.45;;;0.43;;
25129;SDS011;13308;50.860;13.664;2023-12-20T06:32:21;0.52;;;0.52;;
25129;SDS011;13308;50.860;13.664;2023-12-20T06:34:48;0.57;;;0.57;;
25129;SDS011;13308;50.860;13.664;2023-12-20T06:37:13;0.65;;;0.65;;
25129;SDS011;13308;50.860;13.664;2023-12-20T06:39:40;0.60;;;0.60;;
25129;SDS011;13308;50.860;13.664;2023-12-20T06:42:05;0.88;;;0.70;;
25129;SDS011;13308;50.860;13.664;2023-12-20T06:44:31;0.60;;;0.60;;
25129;SDS011;13308;50.860;13.664;2023-12-20T06:46:56;0.90;;;0.85;;
25129;SDS011;13308;50.860;13.664;2023-12-20T06:49:22;0.77;;;0.70;;
25129;SDS011;13308;50.860;13.664;2023-12-20T06:51:47;3.22;;;0.68;;
25129;SDS011;13308;50.860;13.664;2023-12-20T06:54:12;0.60;;;0.60;;
25129;SDS011;13308;50.860;13.664;2023-12-20T06:56:38;0.80;;;0.70;;
25129;SDS011;13308;50.860;13.664;2023-12-20T06:59:03;1.40;;;0.73;;
25129;SDS011;13308;50.860;13.664;2023-12-20T07:01:28;1.15;;;0.98;;
25129;SDS011;13308;50.860;13.664;2023-12-20T07:03:54;1.00;;;0.73;;
25129;SDS011;13308;50.860;13.664;2023-12-20T07:06:19;1.30;;;1.20;;
25129;SDS011;13308;50.860;13.664;2023-12-20T07:08:45;1.17;;;1.08;;
25129;SDS011;13308;50.860;13.664;2023-12-20T07:11:10;1.75;;;1.65;;
25129;SDS011;13308;50.860;13.664;2023-12-20T07:13:36;1.58;;;1.48;;
25129;SDS011;13308;50.860;13.664;2023-12-20T07:16:01;2.03;;;1.63;;
25129;SDS011;13308;50.860;13.664;2023-12-20T07:18:26;2.20;;;2.00;;
25129;SDS011;13308;50.860;13.664;2023-12-20T07:20:52;3.58;;;2.50;;
25129;SDS011;13308;50.860;13.664;2023-12-20T07:23:19;2.78;;;2.50;;
25129;SDS011;13308;50.860;13.664;2023-12-20T07:25:45;2.67;;;2.47;;
25129;SDS011;13308;50.860;13.664;2023-12-20T07:28:10;4.07;;;3.55;;
25129;SDS011;13308;50.860;13.664;2023-12-20T07:30:36;3.45;;;3.15;;
25129;SDS011;13308;50.860;13.664;2023-12-20T07:33:02;4.43;;;4.03;;
25129;SDS011;13308;50.860;13.664;2023-12-20T07:35:28;4.68;;;4.13;;
25129;SDS011;13308;50.860;13.664;2023-12-20T07:37:53;6.30;;;4.30;;
25129;SDS011;13308;50.860;13.664;2023-12-20T07:40:18;7.90;;;4.90;;
25129;SDS011;13308;50.860;13.664;2023-12-20T07:42:44;4.68;;;4.07;;
25129;SDS011;13308;50.860;13.664;2023-12-20T07:45:09;4.47;;;3.97;;
25129;SDS011;13308;50.860;13.664;2023-12-20T07:47:36;6.00;;;3.97;;
25129;SDS011;13308;50.860;13.664;2023-12-20T07:50:01;4.97;;;3.78;;
25129;SDS011;13308;50.860;13.664;2023-12-20T07:52:27;4.15;;;3.75;;
25129;SDS011;13308;50.860;13.664;2023-12-20T07:54:53;4.18;;;3.03;;
25129;SDS011;13308;50.860;13.664;2023-12-20T07:57:19;3.05;;;2.60;;
25129;SDS011;13308;50.860;13.664;2023-12-20T07:59:44;3.00;;;2.70;;
25129;SDS011;13308;50.860;13.664;2023-12-20T08:02:09;5.20;;;3.03;;
25129;SDS011;13308;50.860;13.664;2023-12-20T08:04:35;4.72;;;2.88;;
25129;SDS011;13308;50.860;13.664;2023-12-20T08:07:00;3.05;;;2.75;;
25129;SDS011;13308;50.860;13.664;2023-12-20T08:09:25;3.17;;;2.88;;
25129;SDS011;13308;50.860;13.664;2023-12-20T08:11:51;4.38;;;2.80;;
25129;SDS011;13308;50.860;13.664;2023-12-20T08:14:16;3.13;;;2.83;;
25129;SDS011;13308;50.860;13.664;2023-12-20T08:16:41;4.93;;;2.50;;
25129;SDS011;13308;50.860;13.664;2023-12-20T08:19:07;2.50;;;2.03;;
25129;SDS011;13308;50.860;13.664;2023-12-20T08:21:32;3.50;;;2.33;;
25129;SDS011;13308;50.860;13.664;2023-12-20T08:23:58;2.72;;;2.45;;
25129;SDS011;13308;50.860;13.664;2023-12-20T08:26:25;2.50;;;2.30;;
25129;SDS011;13308;50.860;13.664;2023-12-20T08:28:51;2.65;;;2.28;;
25129;SDS011;13308;50.860;13.664;2023-12-20T08:31:16;6.78;;;1.95;;
25129;SDS011;13308;50.860;13.664;2023-12-20T08:33:45;3.35;;;2.35;;
25129;SDS011;13308;50.860;13.664;2023-12-20T08:36:12;3.25;;;1.92;;
25129;SDS011;13308;50.860;13.664;2023-12-20T08:38:37;2.88;;;1.90;;
25129;SDS011;13308;50.860;13.664;2023-12-20T08:41:03;5.40;;;1.50;;
25129;SDS011;13308;50.860;13.664;2023-12-20T08:43:30;4.20;;;1.90;;
25129;SDS011;13308;50.860;13.664;2023-12-20T08:45:56;2.05;;;1.65;;
25129;SDS011;13308;50.860;13.664;2023-12-20T08:48:21;1.90;;;1.52;;
25129;SDS011;13308;50.860;13.664;2023-12-20T08:50:47;2.20;;;1.60;;
25129;SDS011;13308;50.860;13.664;2023-12-20T08:53:13;1.35;;;1.20;;
25129;SDS011;13308;50.860;13.664;2023-12-20T08:55:43;5.95;;;1.50;;
25129;SDS011;13308;50.860;13.664;2023-12-20T08:58:08;2.25;;;1.70;;
25129;SDS011;13308;50.860;13.664;2023-12-20T09:00:34;3.80;;;2.00;;
25129;SDS011;13308;50.860;13.664;2023-12-20T09:02:59;1.40;;;1.30;;
25129;SDS011;13308;50.860;13.664;2023-12-20T09:05:26;2.45;;;1.52;;
25129;SDS011;13308;50.860;13.664;2023-12-20T09:07:52;2.75;;;1.63;;
25129;SDS011;13308;50.860;13.664;2023-12-20T09:10:17;1.75;;;1.60;;
25129;SDS011;13308;50.860;13.664;2023-12-20T09:12:47;1.83;;;1.50;;
25129;SDS011;13308;50.860;13.664;2023-12-20T09:15:15;3.22;;;1.30;;
25129;SDS011;13308;50.860;13.664;2023-12-20T09:17:40;2.47;;;1.35;;
25129;SDS011;13308;50.860;13.664;2023-12-20T09:20:06;1.65;;;1.38;;
25129;SDS011;13308;50.860;13.664;2023-12-20T09:22:33;5.00;;;1.50;;
25129;SDS011;13308;50.860;13.664;2023-12-20T09:24:58;3.20;;;1.35;;
25129;SDS011;13308;50.860;13.664;2023-12-20T09:27:24;2.33;;;1.40;;
25129;SDS011;13308;50.860;13.664;2023-12-20T09:29:49;4.75;;;1.70;;
25129;SDS011;13308;50.860;13.664;2023-12-20T09:32:15;1.88;;;1.60;;
25129;SDS011;13308;50.860;13.664;2023-12-20T09:34:40;1.35;;;1.25;;
25129;SDS011;13308;50.860;13.664;2023-12-20T09:37:06;2.40;;;1.80;;
25129;SDS011;13308;50.860;13.664;2023-12-20T09:39:32;4.65;;;1.35;;
25129;SDS011;13308;50.860;13.664;2023-12-20T09:42:01;2.67;;;1.50;;
25129;SDS011;13308;50.860;13.664;2023-12-20T09:44:29;2.15;;;1.42;;
25129;SDS011;13308;50.860;13.664;2023-12-20T09:46:56;1.40;;;1.30;;
25129;SDS011;13308;50.860;13.664;2023-12-20T09:49:21;1.92;;;1.30;;
25129;SDS011;13308;50.860;13.664;2023-12-20T09:51:47;2.75;;;1.73;;
25129;SDS011;13308;50.860;13.664;2023-12-20T09:54:16;1.48;;;1.38;;
25129;SDS011;13308;50.860;13.664;2023-12-20T09:56:42;1.48;;;1.38;;
25129;SDS011;13308;50.860;13.664;2023-12-20T09:59:08;1.70;;;1.58;;
25129;SDS011;13308;50.860;13.664;2023-12-20T10:01:33;2.63;;;1.52;;
25129;SDS011;13308;50.860;13.664;2023-12-20T10:04:00;3.75;;;1.50;;
25129;SDS011;13308;50.860;13.664;2023-12-20T10:06:31;5.30;;;1.92;;
25129;SDS011;13308;50.860;13.664;2023-12-20T10:08:57;3.10;;;2.50;;
25129;SDS011;13308;50.860;13.664;2023-12-20T10:11:22;2.30;;;1.45;;
25129;SDS011;13308;50.860;13.664;2023-12-20T10:13:48;3.08;;;1.40;;
25129;SDS011;13308;50.860;13.664;2023-12-20T10:16:13;6.20;;;1.67;;
25129;SDS011;13308;50.860;13.664;2023-12-20T10:18:39;1.75;;;1.40;;
25129;SDS011;13308;50.860;13.664;2023-12-20T10:21:04;3.50;;;1.80;;
25129;SDS011;13308;50.860;13.664;2023-12-20T10:23:31;2.72;;;1.90;;
25129;SDS011;13308;50.860;13.664;2023-12-20T10:26:00;3.47;;;1.60;;
25129;SDS011;13308;50.860;13.664;2023-12-20T10:28:25;2.30;;;2.10;;
25129;SDS011;13308;50.860;13.664;2023-12-20T10:30:53;5.40;;;1.70;;
25129;SDS011;13308;50.860;13.664;2023-12-20T10:33:23;2.40;;;1.48;;
25129;SDS011;13308;50.860;13.664;2023-12-20T10:35:50;3.58;;;2.15;;
25129;SDS011;13308;50.860;13.664;2023-12-20T10:38:15;2.72;;;2.15;;
25129;SDS011;13308;50.860;13.664;2023-12-20T10:40:40;4.85;;;1.83;;
25129;SDS011;13308;50.860;13.664;2023-12-20T10:43:06;2.45;;;2.00;;
25129;SDS011;13308;50.860;13.664;2023-12-20T10:45:33;3.78;;;2.20;;
25129;SDS011;13308;50.860;13.664;2023-12-20T10:47:59;4.18;;;2.03;;
25129;SDS011;13308;50.860;13.664;2023-12-20T10:50:26;3.35;;;1.90;;
25129;SDS011;13308;50.860;13.664;2023-12-20T10:52:53;4.97;;;1.90;;
25129;SDS011;13308;50.860;13.664;2023-12-20T10:55:21;4.28;;;2.22;;
25129;SDS011;13308;50.860;13.664;2023-12-20T10:57:47;2.85;;;2.30;;
25129;SDS011;13308;50.860;13.664;2023-12-20T11:00:16;3.90;;;1.88;;
25129;SDS011;13308;50.860;13.664;2023-12-20T11:02:42;3.40;;;1.67;;
25129;SDS011;13308;50.860;13.664;2023-12-20T11:05:26;2.17;;;1.80;;
25129;SDS011;13308;50.860;13.664;2023-12-20T11:08:23;3.28;;;1.55;;
25129;SDS011;13308;50.860;13.664;2023-12-20T11:11:05;3.50;;;1.30;;
25129;SDS011;13308;50.860;13.664;2023-12-20T11:13:37;3.15;;;1.58;;
25129;SDS011;13308;50.860;13.664;2023-12-20T11:16:09;2.08;;;1.70;;
25129;SDS011;13308;50.860;13.664;2023-12-20T11:18:35;1.92;;;1.65;;
25129;SDS011;13308;50.860;13.664;2023-12-20T11:21:09;2.08;;;1.67;;
25129;SDS011;13308;50.860;13.664;2023-12-20T11:23:35;2.17;;;1.63;;
25129;SDS011;13308;50.860;13.664;2023-12-20T11:26:01;2.67;;;1.50;;
25129;SDS011;13308;50.860;13.664;2023-12-20T11:28:27;3.80;;;1.48;;
25129;SDS011;13308;50.860;13.664;2023-12-20T11:30:53;2.03;;;1.55;;
25129;SDS011;13308;50.860;13.664;2023-12-20T11:33:23;2.58;;;1.70;;
25129;SDS011;13308;50.860;13.664;2023-12-20T11:35:49;2.13;;;1.70;;
25129;SDS011;13308;50.860;13.664;2023-12-20T11:38:15;8.63;;;1.85;;
25129;SDS011;13308;50.860;13.664;2023-12-20T11:40:43;3.78;;;1.60;;
25129;SDS011;13308;50.860;13.664;2023-12-20T11:43:09;6.00;;;1.90;;
25129;SDS011;13308;50.860;13.664;2023-12-20T11:48:32;3.47;;;1.77;;
25129;SDS011;13308;50.860;13.664;2023-12-20T11:50:59;3.88;;;1.50;;
25129;SDS011;13308;50.860;13.664;2023-12-20T11:53:25;3.03;;;1.80;;
25129;SDS011;13308;50.860;13.664;2023-12-20T11:55:50;2.78;;;1.80;;
25129;SDS011;13308;50.860;13.664;2023-12-20T11:58:16;3.28;;;1.90;;
25129;SDS011;13308;50.860;13.664;2023-12-20T12:00:42;3.67;;;2.13;;
25129;SDS011;13308;50.860;13.664;2023-12-20T12:03:08;2.55;;;1.67;;
25129;SDS011;13308;50.860;13.664;2023-12-20T12:05:34;3.42;;;1.67;;
25129;SDS011;13308;50.860;13.664;2023-12-20T12:08:00;2.95;;;1.48;;
25129;SDS011;13308;50.860;13.664;2023-12-20T12:10:26;4.28;;;1.48;;
25129;SDS011;13308;50.860;13.664;2023-12-20T12:12:51;2.20;;;1.70;;
25129;SDS011;13308;50.860;13.664;2023-12-20T12:15:17;4.32;;;1.70;;
25129;SDS011;13308;50.860;13.664;2023-12-20T12:17:42;2.38;;;1.50;;
25129;SDS011;13308;50.860;13.664;2023-12-20T12:20:08;2.40;;;1.70;;
25129;SDS011;13308;50.860;13.664;2023-12-20T12:22:35;2.05;;;1.67;;
25129;SDS011;13308;50.860;13.664;2023-12-20T12:25:11;3.58;;;1.40;;
25129;SDS011;13308;50.860;13.664;2023-12-20T12:27:39;3.75;;;1.50;;
25129;SDS011;13308;50.860;13.664;2023-12-20T12:30:05;2.58;;;1.70;;
25129;SDS011;13308;50.860;13.664;2023-12-20T12:32:34;3.70;;;1.38;;
25129;SDS011;13308;50.860;13.664;2023-12-20T12:35:00;4.45;;;1.77;;
25129;SDS011;13308;50.860;13.664;2023-12-20T12:37:28;1.90;;;1.20;;
25129;SDS011;13308;50.860;13.664;2023-12-20T12:39:53;2.03;;;1.42;;
25129;SDS011;13308;50.860;13.664;2023-12-20T12:42:19;2.85;;;1.45;;
25129;SDS011;13308;50.860;13.664;2023-12-20T12:44:45;1.60;;;1.40;;
25129;SDS011;13308;50.860;13.664;2023-12-20T12:47:11;3.55;;;1.90;;
25129;SDS011;13308;50.860;13.664;2023-12-20T12:49:36;2.20;;;1.52;;
25129;SDS011;13308;50.860;13.664;2023-12-20T12:52:01;3.20;;;1.23;;
25129;SDS011;13308;50.860;13.664;2023-12-20T12:54:28;3.08;;;1.23;;
25129;SDS011;13308;50.860;13.664;2023-12-20T12:56:53;4.53;;;1.33;;
25129;SDS011;13308;50.860;13.664;2023-12-20T12:59:18;2.42;;;1.30;;
25129;SDS011;13308;50.860;13.664;2023-12-20T13:01:44;5.53;;;1.50;;
25129;SDS011;13308;50.860;13.664;2023-12-20T13:04:09;6.05;;;1.50;;
25129;SDS011;13308;50.860;13.664;2023-12-20T13:06:39;3.83;;;1.40;;
25129;SDS011;13308;50.860;13.664;2023-12-20T13:09:05;2.25;;;1.40;;
25129;SDS011;13308;50.860;13.664;2023-12-20T13:11:31;6.65;;;1.67;;
25129;SDS011;13308;50.860;13.664;2023-12-20T13:13:57;1.67;;;1.45;;
25129;SDS011;13308;50.860;13.664;2023-12-20T13:16:25;1.40;;;1.30;;
25129;SDS011;13308;50.860;13.664;2023-12-20T13:18:51;3.97;;;1.85;;
25129;SDS011;13308;50.860;13.664;2023-12-20T13:21:16;6.13;;;2.22;;
25129;SDS011;13308;50.860;13.664;2023-12-20T13:23:42;2.03;;;1.50;;
25129;SDS011;13308;50.860;13.664;2023-12-20T13:26:07;2.25;;;1.58;;
25129;SDS011;13308;50.860;13.664;2023-12-20T13:28:33;2.67;;;1.77;;
25129;SDS011;13308;50.860;13.664;2023-12-20T13:30:58;3.00;;;1.30;;
25129;SDS011;13308;50.860;13.664;2023-12-20T13:33:23;6.25;;;1.58;;
25129;SDS011;13308;50.860;13.664;2023-12-20T13:35:49;2.08;;;1.27;;
25129;SDS011;13308;50.860;13.664;2023-12-20T13:38:14;2.13;;;1.30;;
25129;SDS011;13308;50.860;13.664;2023-12-20T13:40:39;3.25;;;1.58;;
25129;SDS011;13308;50.860;13.664;2023-12-20T13:43:05;2.50;;;1.10;;
25129;SDS011;13308;50.860;13.664;2023-12-20T13:45:31;1.67;;;1.50;;
25129;SDS011;13308;50.860;13.664;2023-12-20T13:47:56;1.65;;;1.55;;
25129;SDS011;13308;50.860;13.664;2023-12-20T13:50:21;3.45;;;1.58;;
25129;SDS011;13308;50.860;13.664;2023-12-20T13:52:47;5.22;;;2.28;;
25129;SDS011;13308;50.860;13.664;2023-12-20T13:55:13;1.90;;;1.25;;
25129;SDS011;13308;50.860;13.664;2023-12-20T13:57:38;2.38;;;1.52;;
25129;SDS011;13308;50.860;13.664;2023-12-20T14:00:05;2.40;;;1.75;;
25129;SDS011;13308;50.860;13.664;2023-12-20T14:02:32;3.55;;;1.58;;
25129;SDS011;13308;50.860;13.664;2023-12-20T14:04:57;1.58;;;1.45;;
25129;SDS011;13308;50.860;13.664;2023-12-20T14:07:23;2.80;;;1.25;;
25129;SDS011;13308;50.860;13.664;2023-12-20T14:09:48;3.88;;;1.50;;
25129;SDS011;13308;50.860;13.664;2023-12-20T14:12:14;1.70;;;1.45;;
25129;SDS011;13308;50.860;13.664;2023-12-20T14:14:40;3.08;;;1.50;;
25129;SDS011;13308;50.860;13.664;2023-12-20T14:17:05;4.25;;;2.22;;
25129;SDS011;13308;50.860;13.664;2023-12-20T14:19:34;5.05;;;1.65;;
25129;SDS011;13308;50.860;13.664;2023-12-20T14:21:59;5.15;;;1.30;;
25129;SDS011;13308;50.860;13.664;2023-12-20T14:24:26;3.70;;;1.38;;
25129;SDS011;13308;50.860;13.664;2023-12-20T14:26:52;1.20;;;1.00;;
25129;SDS011;13308;50.860;13.664;2023-12-20T14:29:18;3.22;;;1.23;;
25129;SDS011;13308;50.860;13.664;2023-12-20T14:31:43;4.07;;;1.38;;
25129;SDS011;13308;50.860;13.664;2023-12-20T14:34:08;4.55;;;1.65;;
25129;SDS011;13308;50.860;13.664;2023-12-20T14:36:34;1.73;;;1.40;;
25129;SDS011;13308;50.860;13.664;2023-12-20T14:39:00;4.00;;;1.60;;
25129;SDS011;13308;50.860;13.664;2023-12-20T14:41:26;3.03;;;1.67;;
25129;SDS011;13308;50.860;13.664;2023-12-20T14:43:51;1.52;;;1.40;;
25129;SDS011;13308;50.860;13.664;2023-12-20T14:46:18;1.55;;;1.40;;
25129;SDS011;13308;50.860;13.664;2023-12-20T14:48:43;1.88;;;1.20;;
25129;SDS011;13308;50.860;13.664;2023-12-20T14:51:09;1.52;;;1.35;;
25129;SDS011;13308;50.860;13.664;2023-12-20T14:53:35;2.35;;;1.70;;
25129;SDS011;13308;50.860;13.664;2023-12-20T14:56:02;3.97;;;1.73;;
25129;SDS011;13308;50.860;13.664;2023-12-20T14:58:29;4.85;;;2.30;;
25129;SDS011;13308;50.860;13.664;2023-12-20T15:00:55;3.63;;;2.53;;
25129;SDS011;13308;50.860;13.664;2023-12-20T15:03:21;3.85;;;2.40;;
25129;SDS011;13308;50.860;13.664;2023-12-20T15:05:46;5.13;;;2.00;;
25129;SDS011;13308;50.860;13.664;2023-12-20T15:08:12;7.68;;;3.65;;
25129;SDS011;13308;50.860;13.664;2023-12-20T15:10:38;4.97;;;1.95;;
25129;SDS011;13308;50.860;13.664;2023-12-20T15:13:04;1.48;;;1.30;;
25129;SDS011;13308;50.860;13.664;2023-12-20T15:15:29;1.45;;;1.10;;
25129;SDS011;13308;50.860;13.664;2023-12-20T15:17:54;1.48;;;1.30;;
25129;SDS011;13308;50.860;13.664;2023-12-20T15:20:20;2.65;;;1.23;;
25129;SDS011;13308;50.860;13.664;2023-12-20T15:22:45;1.92;;;1.63;;
25129;SDS011;13308;50.860;13.664;2023-12-20T15:25:11;4.05;;;1.60;;
25129;SDS011;13308;50.860;13.664;2023-12-20T15:27:37;4.35;;;1.30;;
25129;SDS011;13308;50.860;13.664;2023-12-20T15:30:04;3.17;;;1.65;;
25129;SDS011;13308;50.860;13.664;2023-12-20T15:32:30;1.85;;;1.35;;
25129;SDS011;13308;50.860;13.664;2023-12-20T15:34:57;3.63;;;1.27;;
25129;SDS011;13308;50.860;13.664;2023-12-20T15:37:23;1.58;;;1.13;;
25129;SDS011;13308;50.860;13.664;2023-12-20T15:39:51;2.13;;;1.55;;
25129;SDS011;13308;50.860;13.664;2023-12-20T15:42:16;5.82;;;1.45;;
25129;SDS011;13308;50.860;13.664;2023-12-20T15:44:42;1.50;;;1.20;;
25129;SDS011;13308;50.860;13.664;2023-12-20T15:47:07;2.10;;;1.90;;
25129;SDS011;13308;50.860;13.664;2023-12-20T15:49:32;2.40;;;1.30;;
25129;SDS011;13308;50.860;13.664;2023-12-20T15:51:58;2.05;;;1.50;;
25129;SDS011;13308;50.860;13.664;2023-12-20T15:54:23;1.58;;;1.45;;
25129;SDS011;13308;50.860;13.664;2023-12-20T15:56:48;1.63;;;1.40;;
25129;SDS011;13308;50.860;13.664;2023-12-20T15:59:14;2.55;;;1.40;;
25129;SDS011;13308;50.860;13.664;2023-12-20T16:01:39;4.60;;;3.88;;
25129;SDS011;13308;50.860;13.664;2023-12-20T16:04:05;3.10;;;2.00;;
25129;SDS011;13308;50.860;13.664;2023-12-20T16:06:30;1.55;;;1.40;;
25129;SDS011;13308;50.860;13.664;2023-12-20T16:08:55;1.85;;;1.33;;
25129;SDS011;13308;50.860;13.664;2023-12-20T16:11:21;1.55;;;1.45;;
25129;SDS011;13308;50.860;13.664;2023-12-20T16:13:46;3.35;;;1.50;;
25129;SDS011;13308;50.860;13.664;2023-12-20T16:16:12;1.15;;;1.05;;
25129;SDS011;13308;50.860;13.664;2023-12-20T16:18:37;2.67;;;1.52;;
25129;SDS011;13308;50.860;13.664;2023-12-20T16:21:02;1.70;;;1.30;;
25129;SDS011;13308;50.860;13.664;2023-12-20T16:23:29;2.75;;;1.70;;
25129;SDS011;13308;50.860;13.664;2023-12-20T16:25:54;3.78;;;1.52;;
25129;SDS011;13308;50.860;13.664;2023-12-20T16:28:20;3.15;;;1.65;;
25129;SDS011;13308;50.860;13.664;2023-12-20T16:30:45;1.45;;;1.20;;
25129;SDS011;13308;50.860;13.664;2023-12-20T16:33:11;2.28;;;1.55;;
25129;SDS011;13308;50.860;13.664;2023-12-20T16:35:36;3.33;;;1.60;;
25129;SDS011;13308;50.860;13.664;2023-12-20T16:38:02;3.13;;;2.30;;
25129;SDS011;13308;50.860;13.664;2023-12-20T16:40:27;3.17;;;1.77;;
25129;SDS011;13308;50.860;13.664;2023-12-20T16:42:53;3.13;;;1.60;;
25129;SDS011;13308;50.860;13.664;2023-12-20T16:45:22;2.53;;;1.50;;
25129;SDS011;13308;50.860;13.664;2023-12-20T16:47:48;2.03;;;1.75;;
25129;SDS011;13308;50.860;13.664;2023-12-20T16:50:13;3.60;;;1.65;;
25129;SDS011;13308;50.860;13.664;2023-12-20T16:52:39;3.67;;;1.20;;
25129;SDS011;13308;50.860;13.664;2023-12-20T16:55:05;1.33;;;1.23;;
25129;SDS011;13308;50.860;13.664;2023-12-20T16:57:33;1.52;;;1.30;;
25129;SDS011;13308;50.860;13.664;2023-12-20T16:59:58;5.03;;;1.50;;
25129;SDS011;13308;50.860;13.664;2023-12-20T17:02:24;1.40;;;1.20;;
25129;SDS011;13308;50.860;13.664;2023-12-20T17:04:49;2.50;;;1.88;;
25129;SDS011;13308;50.860;13.664;2023-12-20T17:07:14;2.38;;;1.38;;
25129;SDS011;13308;50.860;13.664;2023-12-20T17:09:40;2.03;;;1.63;;
25129;SDS011;13308;50.860;13.664;2023-12-20T17:12:05;1.98;;;1.65;;
25129;SDS011;13308;50.860;13.664;2023-12-20T17:14:32;6.05;;;1.48;;
25129;SDS011;13308;50.860;13.664;2023-12-20T17:16:58;7.25;;;1.48;;
25129;SDS011;13308;50.860;13.664;2023-12-20T17:19:23;1.90;;;1.42;;
25129;SDS011;13308;50.860;13.664;2023-12-20T17:21:49;1.80;;;1.60;;
25129;SDS011;13308;50.860;13.664;2023-12-20T17:24:15;2.20;;;1.13;;
25129;SDS011;13308;50.860;13.664;2023-12-20T17:26:41;2.20;;;1.45;;
25129;SDS011;13308;50.860;13.664;2023-12-20T17:29:06;3.72;;;1.60;;
25129;SDS011;13308;50.860;13.664;2023-12-20T17:31:31;1.88;;;1.45;;
25129;SDS011;13308;50.860;13.664;2023-12-20T17:33:57;3.63;;;1.42;;
25129;SDS011;13308;50.860;13.664;2023-12-20T17:36:22;2.05;;;1.45;;
25129;SDS011;13308;50.860;13.664;2023-12-20T17:38:48;4.28;;;1.80;;
25129;SDS011;13308;50.860;13.664;2023-12-20T17:41:13;1.95;;;1.50;;
25129;SDS011;13308;50.860;13.664;2023-12-20T17:43:38;4.85;;;2.13;;
25129;SDS011;13308;50.860;13.664;2023-12-20T17:46:04;3.83;;;2.10;;
25129;SDS011;13308;50.860;13.664;2023-12-20T17:48:29;3.72;;;2.10;;
25129;SDS011;13308;50.860;13.664;2023-12-20T17:50:54;3.35;;;1.90;;
25129;SDS011;13308;50.860;13.664;2023-12-20T17:53:20;2.47;;;1.70;;
25129;SDS011;13308;50.860;13.664;2023-12-20T17:55:45;2.72;;;1.90;;
25129;SDS011;13308;50.860;13.664;2023-12-20T17:58:10;4.45;;;1.90;;
25129;SDS011;13308;50.860;13.664;2023-12-20T18:00:36;5.95;;;1.90;;
25129;SDS011;13308;50.860;13.664;2023-12-20T18:03:01;3.63;;;2.17;;
25129;SDS011;13308;50.860;13.664;2023-12-20T18:05:27;3.63;;;2.53;;
25129;SDS011;13308;50.860;13.664;2023-12-20T18:07:53;3.42;;;2.00;;
25129;SDS011;13308;50.860;13.664;2023-12-20T18:10:18;3.65;;;2.08;;
25129;SDS011;13308;50.860;13.664;2023-12-20T18:12:44;2.08;;;1.85;;
25129;SDS011;13308;50.860;13.664;2023-12-20T18:15:11;3.15;;;1.83;;
25129;SDS011;13308;50.860;13.664;2023-12-20T18:17:37;3.17;;;2.25;;
25129;SDS011;13308;50.860;13.664;2023-12-20T18:20:03;2.80;;;1.95;;
25129;SDS011;13308;50.860;13.664;2023-12-20T18:22:28;3.05;;;2.17;;
25129;SDS011;13308;50.860;13.664;2023-12-20T18:24:54;4.22;;;1.85;;
25129;SDS011;13308;50.860;13.664;2023-12-20T18:27:21;5.57;;;2.28;;
25129;SDS011;13308;50.860;13.664;2023-12-20T18:29:47;2.25;;;2.05;;
25129;SDS011;13308;50.860;13.664;2023-12-20T18:32:12;2.55;;;2.20;;
25129;SDS011;13308;50.860;13.664;2023-12-20T18:34:37;3.08;;;2.17;;
25129;SDS011;13308;50.860;13.664;2023-12-20T18:37:03;2.45;;;2.10;;
25129;SDS011;13308;50.860;13.664;2023-12-20T18:39:31;2.97;;;2.00;;
25129;SDS011;13308;50.860;13.664;2023-12-20T18:41:57;3.35;;;2.05;;
25129;SDS011;13308;50.860;13.664;2023-12-20T18:44:22;2.70;;;1.83;;
25129;SDS011;13308;50.860;13.664;2023-12-20T18:46:48;2.30;;;2.10;;
25129;SDS011;13308;50.860;13.664;2023-12-20T18:49:13;3.72;;;1.90;;
25129;SDS011;13308;50.860;13.664;2023-12-20T18:51:39;3.30;;;1.90;;
25129;SDS011;13308;50.860;13.664;2023-12-20T18:54:04;3.95;;;2.35;;
25129;SDS011;13308;50.860;13.664;2023-12-20T18:56:29;2.70;;;2.28;;
25129;SDS011;13308;50.860;13.664;2023-12-20T18:58:55;2.55;;;1.98;;
25129;SDS011;13308;50.860;13.664;2023-12-20T19:01:20;2.42;;;1.70;;
25129;SDS011;13308;50.860;13.664;2023-12-20T19:03:46;2.30;;;1.67;;
25129;SDS011;13308;50.860;13.664;2023-12-20T19:06:11;3.78;;;1.88;;
25129;SDS011;13308;50.860;13.664;2023-12-20T19:08:37;2.00;;;1.73;;
25129;SDS011;13308;50.860;13.664;2023-12-20T19:11:04;7.95;;;2.03;;
25129;SDS011;13308;50.860;13.664;2023-12-20T19:13:30;2.90;;;2.03;;
25129;SDS011;13308;50.860;13.664;2023-12-20T19:15:59;3.97;;;1.52;;
25129;SDS011;13308;50.860;13.664;2023-12-20T19:18:25;2.30;;;1.75;;
25129;SDS011;13308;50.860;13.664;2023-12-20T19:20:51;1.90;;;1.67;;
25129;SDS011;13308;50.860;13.664;2023-12-20T19:23:18;2.47;;;1.90;;
25129;SDS011;13308;50.860;13.664;2023-12-20T19:25:44;4.72;;;2.10;;
25129;SDS011;13308;50.860;13.664;2023-12-20T19:28:09;3.88;;;1.70;;
25129;SDS011;13308;50.860;13.664;2023-12-20T19:30:34;2.50;;;1.60;;
25129;SDS011;13308;50.860;13.664;2023-12-20T19:32:59;2.85;;;1.70;;
